createdAt,value
2019-05-29T00:03:41.569Z,99.90
2019-05-29T00:07:46.324Z,99.90
2019-05-29T00:11:51.143Z,99.90
2019-05-29T00:15:56.005Z,99.90
2019-05-29T00:20:00.789Z,99.90
2019-05-29T00:24:06.296Z,99.90
2019-05-29T00:28:12.704Z,99.90
2019-05-29T00:32:17.962Z,99.90
2019-05-29T00:36:23.001Z,99.90
2019-05-29T00:40:27.744Z,99.90
2019-05-29T00:44:34.611Z,99.90
2019-05-29T00:48:39.303Z,99.90
2019-05-29T00:52:44.135Z,99.90
2019-05-29T00:56:49.066Z,99.90
2019-05-29T01:00:53.960Z,99.90
2019-05-29T01:04:58.971Z,99.90
2019-05-29T01:09:04.829Z,99.90
2019-05-29T01:13:10.984Z,99.90
2019-05-29T01:17:16.080Z,99.90
2019-05-29T01:21:22.003Z,99.90
2019-05-29T01:25:27.629Z,99.90
2019-05-29T01:29:32.524Z,99.90
2019-05-29T01:33:37.769Z,99.90
2019-05-29T01:37:42.580Z,99.60
2019-05-29T01:41:47.320Z,99.60
2019-05-29T01:45:52.441Z,99.90
2019-05-29T01:49:57.308Z,99.90
2019-05-29T01:54:02.332Z,99.80
2019-05-29T01:58:07.172Z,99.90
2019-05-29T02:02:12.072Z,99.90
2019-05-29T02:06:17.865Z,99.90
2019-05-29T02:10:24.260Z,99.90
2019-05-29T02:14:29.664Z,99.90
2019-05-29T02:18:34.531Z,99.90
2019-05-29T02:22:39.343Z,99.90
2019-05-29T02:26:44.465Z,99.90
2019-05-29T02:30:49.864Z,99.90
2019-05-29T02:34:54.981Z,99.90
2019-05-29T02:38:59.855Z,99.90
2019-05-29T02:43:04.940Z,99.80
2019-05-29T02:47:09.895Z,99.60
2019-05-29T02:51:15.224Z,99.70
2019-05-29T02:55:20.765Z,99.90
2019-05-29T02:59:29.786Z,99.90
2019-05-29T03:03:39.466Z,99.90
2019-05-29T03:07:41.434Z,99.90
2019-05-29T03:11:46.311Z,99.90
2019-05-29T03:16:08.609Z,99.90
2019-05-29T03:19:57.965Z,99.90
2019-05-29T03:24:02.938Z,99.90
2019-05-29T03:28:08.106Z,99.90
2019-05-29T03:32:14.457Z,99.90
2019-05-29T03:36:20.068Z,99.90
2019-05-29T03:40:26.497Z,99.90
2019-05-29T03:44:33.275Z,99.90
2019-05-29T03:48:38.571Z,99.90
2019-05-29T03:52:44.754Z,99.90
2019-05-29T03:56:49.673Z,99.90
2019-05-29T04:00:54.620Z,99.90
2019-05-29T04:04:59.618Z,99.90
2019-05-29T04:09:06.880Z,99.90
2019-05-29T04:13:11.622Z,99.90
2019-05-29T04:17:18.385Z,99.90
2019-05-29T04:21:24.763Z,99.90
2019-05-29T04:25:36.000Z,99.90
2019-05-29T04:29:39.537Z,99.90
2019-05-29T04:33:44.614Z,99.90
2019-05-29T04:37:49.467Z,99.90
2019-05-29T04:41:54.353Z,99.90
2019-05-29T04:46:00.234Z,99.90
2019-05-29T04:50:05.747Z,99.90
2019-05-29T04:54:10.573Z,99.70
2019-05-29T04:58:15.571Z,99.90
2019-05-29T05:02:20.353Z,99.90
2019-05-29T05:06:25.472Z,99.90
2019-05-29T05:10:41.354Z,99.90
2019-05-29T05:14:46.595Z,99.90
2019-05-29T05:18:51.724Z,99.90
2019-05-29T05:23:03.772Z,99.90
2019-05-29T05:27:13.025Z,99.90
2019-05-29T05:31:17.836Z,99.90
2019-05-29T05:35:22.683Z,99.80
2019-05-29T05:39:27.601Z,99.90
2019-05-29T05:43:32.841Z,99.80
2019-05-29T05:47:50.052Z,99.30
2019-05-29T05:51:44.806Z,99.10
2019-05-29T05:55:50.544Z,98.80
2019-05-29T05:59:55.444Z,98.80
2019-05-29T06:04:00.730Z,98.40
2019-05-29T06:08:05.588Z,98.70
2019-05-29T06:12:10.472Z,98.60
2019-05-29T06:16:15.369Z,98.80
2019-05-29T06:20:20.302Z,98.70
2019-05-29T06:24:25.306Z,98.20
2019-05-29T06:28:30.033Z,98.10
2019-05-29T06:32:35.338Z,98.30
2019-05-29T06:36:41.527Z,98.30
2019-05-29T06:40:46.606Z,98.50
2019-05-29T06:44:51.805Z,97.80
2019-05-29T06:49:00.581Z,97.80
2019-05-29T06:53:03.396Z,97.40
2019-05-29T06:57:08.143Z,96.50
2019-05-29T07:01:13.034Z,96.20
2019-05-29T07:05:17.925Z,96.20
2019-05-29T07:09:22.709Z,95.20
2019-05-29T07:13:27.588Z,95.30
2019-05-29T07:17:32.320Z,94.00
2019-05-29T07:21:37.064Z,95.10
2019-05-29T07:25:42.997Z,95.00
2019-05-29T07:29:48.008Z,94.90
2019-05-29T07:33:53.227Z,94.80
2019-05-29T07:37:58.508Z,94.10
2019-05-29T07:42:03.248Z,94.20
2019-05-29T07:46:08.144Z,94.00
2019-05-29T07:50:13.716Z,93.70
2019-05-29T07:54:18.534Z,93.60
2019-05-29T07:58:23.408Z,94.30
2019-05-29T08:02:28.288Z,93.90
2019-05-29T08:06:33.184Z,93.10
2019-05-29T08:10:39.817Z,92.60
2019-05-29T08:14:45.763Z,91.60
2019-05-29T08:18:53.047Z,93.00
2019-05-29T08:22:57.265Z,91.50
2019-05-29T08:27:02.002Z,93.10
2019-05-29T08:31:06.731Z,92.40
2019-05-29T08:35:11.837Z,92.60
2019-05-29T08:39:34.059Z,92.70
2019-05-29T08:43:23.523Z,92.00
2019-05-29T08:47:28.262Z,92.10
2019-05-29T08:51:33.020Z,91.30
2019-05-29T08:55:37.749Z,91.40
2019-05-29T08:59:42.716Z,91.40
2019-05-29T09:03:48.780Z,91.50
2019-05-29T09:07:54.464Z,91.70
2019-05-29T09:11:59.411Z,91.20
2019-05-29T09:16:04.620Z,90.30
2019-05-29T09:20:27.122Z,89.80
2019-05-29T09:24:17.554Z,89.40
2019-05-29T09:28:23.825Z,89.00
2019-05-29T09:32:48.324Z,88.20
2019-05-29T09:36:35.450Z,89.80
2019-05-29T09:40:40.239Z,88.60
2019-05-29T09:44:45.931Z,89.70
2019-05-29T09:48:51.000Z,86.40
2019-05-29T09:52:57.189Z,85.80
2019-05-29T09:57:02.850Z,87.70
2019-05-29T10:01:22.411Z,88.00
2019-05-29T10:05:14.908Z,87.50
2019-05-29T10:09:19.712Z,88.60
2019-05-29T10:13:24.872Z,89.00
2019-05-29T10:17:29.686Z,86.40
2019-05-29T10:21:40.585Z,88.50
2019-05-29T10:25:41.331Z,88.80
2019-05-29T10:29:49.643Z,90.80
2019-05-29T10:33:52.724Z,91.20
2019-05-29T10:37:57.534Z,91.30
2019-05-29T10:42:02.244Z,91.00
2019-05-29T10:46:07.140Z,91.00
2019-05-29T10:50:12.873Z,89.80
2019-05-29T10:54:17.784Z,90.20
2019-05-29T10:58:22.518Z,90.70
2019-05-29T11:02:27.254Z,90.10
2019-05-29T11:06:32.251Z,90.50
2019-05-29T11:10:38.492Z,85.40
2019-05-29T11:14:43.320Z,84.60
2019-05-29T11:18:49.175Z,83.10
2019-05-29T11:22:54.196Z,82.40
2019-05-29T11:26:59.113Z,80.20
2019-05-29T11:31:06.203Z,77.60
2019-05-29T11:35:10.964Z,76.90
2019-05-29T11:39:15.908Z,77.80
2019-05-29T11:43:20.719Z,80.30
2019-05-29T11:47:25.586Z,78.00
2019-05-29T11:51:30.399Z,80.40
2019-05-29T11:55:35.160Z,79.20
2019-05-29T11:59:39.968Z,77.80
2019-05-29T12:04:09.552Z,78.60
2019-05-29T12:07:51.627Z,77.50
2019-05-29T12:11:57.986Z,75.00
2019-05-29T12:16:03.352Z,73.70
2019-05-29T12:20:26.619Z,76.70
2019-05-29T12:24:15.084Z,74.80
2019-05-29T12:28:19.995Z,74.60
2019-05-29T12:32:24.800Z,74.90
2019-05-29T12:36:29.544Z,73.90
2019-05-29T12:40:34.424Z,75.30
2019-05-29T12:44:39.310Z,79.30
2019-05-29T12:48:44.074Z,84.20
2019-05-29T12:52:49.074Z,86.20
2019-05-29T12:56:54.256Z,88.70
2019-05-29T13:01:00.681Z,90.20
2019-05-29T13:05:17.296Z,89.00
2019-05-29T13:09:13.209Z,90.10
2019-05-29T13:13:18.097Z,89.40
2019-05-29T13:17:22.910Z,88.80
2019-05-29T13:21:27.801Z,89.60
2019-05-29T13:25:33.591Z,90.30
2019-05-29T13:29:38.435Z,90.20
2019-05-29T13:33:43.329Z,90.50
2019-05-29T13:37:48.222Z,90.30
2019-05-29T13:41:52.946Z,90.80
2019-05-29T13:45:58.360Z,90.60
2019-05-29T13:50:09.330Z,90.50
2019-05-29T13:54:16.954Z,90.60
2019-05-29T13:58:18.145Z,90.20
2019-05-29T14:02:23.161Z,89.80
2019-05-29T14:06:27.908Z,87.40
2019-05-29T14:10:32.788Z,86.00
2019-05-29T14:14:37.589Z,85.50
2019-05-29T14:18:42.474Z,83.70
2019-05-29T14:22:47.307Z,85.30
2019-05-29T14:26:52.124Z,83.70
2019-05-29T14:30:56.932Z,83.80
2019-05-29T14:35:04.300Z,84.70
2019-05-29T14:39:09.772Z,85.10
2019-05-29T14:43:15.647Z,83.30
2019-05-29T14:47:21.440Z,83.00
2019-05-29T14:51:26.172Z,84.40
2019-05-29T14:55:31.187Z,82.60
2019-05-29T14:59:35.960Z,84.30
2019-05-29T15:03:40.764Z,82.70
2019-05-29T15:07:45.645Z,82.90
2019-05-29T15:11:50.376Z,82.90
2019-05-29T15:15:55.241Z,82.30
2019-05-29T15:20:00.152Z,79.80
2019-05-29T15:24:05.711Z,80.10
2019-05-29T15:28:13.677Z,79.30
2019-05-29T15:32:17.449Z,81.50
2019-05-29T15:36:22.581Z,81.50
2019-05-29T15:40:27.388Z,82.40
2019-05-29T15:44:32.123Z,81.80
2019-05-29T15:48:36.849Z,81.60
2019-05-29T15:52:41.692Z,81.90
2019-05-29T15:56:46.603Z,82.80
2019-05-29T16:00:51.365Z,84.80
2019-05-29T16:04:56.254Z,86.00
2019-05-29T16:09:01.092Z,85.80
2019-05-29T16:13:08.718Z,84.70
2019-05-29T16:17:15.173Z,86.10
2019-05-29T16:21:20.390Z,86.10
2019-05-29T16:25:39.640Z,87.90
2019-05-29T16:29:31.880Z,88.40
2019-05-29T16:33:36.697Z,90.00
2019-05-29T16:37:41.536Z,88.90
2019-05-29T16:41:46.248Z,89.20
2019-05-29T16:45:51.067Z,89.20
2019-05-29T16:49:55.931Z,89.30
2019-05-29T16:54:00.791Z,88.80
2019-05-29T16:58:05.739Z,89.00
2019-05-29T17:02:10.533Z,88.20
2019-05-29T17:06:15.812Z,88.40
2019-05-29T17:10:26.094Z,88.30
2019-05-29T17:14:30.830Z,88.70
2019-05-29T17:18:35.664Z,88.70
2019-05-29T17:22:40.548Z,88.60
2019-05-29T17:26:45.428Z,88.00
2019-05-29T17:30:50.604Z,88.50
2019-05-29T17:34:55.521Z,89.50
2019-05-29T17:39:00.402Z,88.30
2019-05-29T17:43:05.586Z,86.50
2019-05-29T17:47:10.472Z,87.40
2019-05-29T17:51:15.435Z,87.20
2019-05-29T17:55:21.826Z,87.30
2019-05-29T17:59:26.853Z,88.50
2019-05-29T18:03:31.718Z,88.80
2019-05-29T18:07:36.612Z,87.40
2019-05-29T18:11:41.496Z,87.60
2019-05-29T18:15:46.477Z,88.00
2019-05-29T18:19:51.220Z,88.40
2019-05-29T18:23:56.127Z,88.40
2019-05-29T18:28:03.721Z,88.20
2019-05-29T18:32:10.065Z,88.60
2019-05-29T18:36:16.427Z,88.10
2019-05-29T18:40:22.357Z,88.90
2019-05-29T18:44:31.516Z,89.30
2019-05-29T18:48:36.373Z,88.80
2019-05-29T18:52:41.230Z,88.50
2019-05-29T18:57:13.231Z,88.30
2019-05-29T19:00:53.100Z,89.40
2019-05-29T19:04:58.172Z,88.90
2019-05-29T19:09:02.971Z,89.60
2019-05-29T19:13:07.798Z,89.80
2019-05-29T19:17:13.044Z,89.60
2019-05-29T19:21:17.862Z,90.20
2019-05-29T19:25:22.801Z,90.20
2019-05-29T19:29:29.128Z,90.20
2019-05-29T19:33:34.626Z,90.50
2019-05-29T19:37:39.840Z,90.50
2019-05-29T19:41:44.741Z,90.90
2019-05-29T19:45:51.083Z,91.00
2019-05-29T19:49:56.317Z,90.70
2019-05-29T19:54:01.533Z,90.90
2019-05-29T19:58:06.488Z,90.60
2019-05-29T20:02:11.552Z,91.10
2019-05-29T20:06:16.560Z,90.60
2019-05-29T20:10:21.530Z,90.60
2019-05-29T20:14:27.553Z,92.00
2019-05-29T20:18:34.185Z,91.50
2019-05-29T20:22:39.463Z,90.70
2019-05-29T20:26:44.277Z,90.50
2019-05-29T20:30:49.008Z,90.10
2019-05-29T20:34:53.746Z,89.70
2019-05-29T20:38:58.580Z,89.50
2019-05-29T20:43:03.489Z,89.90
2019-05-29T20:47:09.967Z,89.90
2019-05-29T20:51:14.784Z,89.40
2019-05-29T20:55:20.368Z,90.10
2019-05-29T20:59:25.111Z,90.20
2019-05-29T21:03:29.928Z,90.40
2019-05-29T21:07:34.728Z,90.30
2019-05-29T21:11:39.613Z,90.30
2019-05-29T21:15:44.791Z,90.40
2019-05-29T21:19:49.622Z,90.30
2019-05-29T21:23:54.688Z,90.80
2019-05-29T21:27:59.496Z,91.10
2019-05-29T21:32:04.580Z,91.10
2019-05-29T21:36:09.552Z,90.50
2019-05-29T21:40:14.528Z,90.70
2019-05-29T21:44:19.568Z,90.90
2019-05-29T21:48:24.379Z,91.00
2019-05-29T21:52:29.353Z,90.30
2019-05-29T21:56:34.373Z,92.00
2019-05-29T22:00:50.596Z,92.30
2019-05-29T22:04:57.307Z,92.50
2019-05-29T22:09:02.299Z,93.50
2019-05-29T22:13:08.989Z,94.80
2019-05-29T22:17:13.999Z,94.70
2019-05-29T22:21:18.885Z,95.20
2019-05-29T22:25:24.728Z,95.60
2019-05-29T22:29:29.456Z,95.70
2019-05-29T22:33:34.494Z,95.70
2019-05-29T22:37:39.428Z,96.10
2019-05-29T22:41:44.252Z,96.20
2019-05-29T22:45:49.399Z,97.10
2019-05-29T22:49:55.838Z,97.20
2019-05-29T22:54:02.063Z,97.40
2019-05-29T22:58:07.307Z,97.70
2019-05-29T23:02:12.669Z,97.40
2019-05-29T23:06:18.896Z,97.70
2019-05-29T23:10:23.784Z,97.40
2019-05-29T23:14:29.422Z,97.70
2019-05-29T23:18:34.294Z,97.80
2019-05-29T23:22:39.148Z,97.70
2019-05-29T23:26:44.899Z,98.20
2019-05-29T23:30:49.827Z,98.60
2019-05-29T23:34:55.119Z,98.70
2019-05-29T23:39:01.319Z,98.60
2019-05-29T23:43:06.779Z,98.50
2019-05-29T23:47:11.843Z,98.30
2019-05-29T23:51:16.656Z,98.10
2019-05-29T23:55:21.800Z,97.70
2019-05-29T23:59:26.544Z,97.20
